sensor_id;sensor_type;location;lat;lon;timestamp;P1;durP1;ratioP1;P2;durP2;ratioP2
27436;SDS011;14886;51.586;6.722;2023-07-20T00:02:52;13;;;5.1;;
27436;SDS011;14886;51.586;6.722;2023-07-20T00:12:52;9.5;;;4.6;;
27436;SDS011;14886;51.586;6.722;2023-07-20T00:22:52;12.8;;;5.8;;
27436;SDS011;14886;51.586;6.722;2023-07-20T00:27:52;14.3;;;6.2;;
27436;SDS011;14886;51.586;6.722;2023-07-20T00:37:52;13.3;;;6.1;;
27436;SDS011;14886;51.586;6.722;2023-07-20T00:47:52;14.6;;;7.2;;
27436;SDS011;14886;51.586;6.722;2023-07-20T00:57:52;16.8;;;7.1;;
27436;SDS011;14886;51.586;6.722;2023-07-20T01:07:53;17.1;;;7.5;;
27436;SDS011;14886;51.586;6.722;2023-07-20T01:17:52;14.3;;;7.3;;
27436;SDS011;14886;51.586;6.722;2023-07-20T01:32:52;18.3;;;7.6;;
27436;SDS011;14886;51.586;6.722;2023-07-20T01:42:52;13.8;;;7.2;;
27436;SDS011;14886;51.586;6.722;2023-07-20T01:52:52;14.6;;;6.8;;
27436;SDS011;14886;51.586;6.722;2023-07-20T02:02:52;15.7;;;9.2;;
27436;SDS011;14886;51.586;6.722;2023-07-20T02:07:52;21.5;;;9.8;;
27436;SDS011;14886;51.586;6.722;2023-07-20T02:17:52;24.1;;;10.5;;
27436;SDS011;14886;51.586;6.722;2023-07-20T02:27:52;23.1;;;11.5;;
27436;SDS011;14886;51.586;6.722;2023-07-20T02:37:52;26.3;;;13;;
27436;SDS011;14886;51.586;6.722;2023-07-20T02:47:52;31.8;;;15.1;;
27436;SDS011;14886;51.586;6.722;2023-07-20T02:57:52;40.4;;;17.1;;
27436;SDS011;14886;51.586;6.722;2023-07-20T03:07:52;41.1;;;19;;
27436;SDS011;14886;51.586;6.722;2023-07-20T03:17:52;44;;;21.1;;
27436;SDS011;14886;51.586;6.722;2023-07-20T03:27:52;48.9;;;23.9;;
27436;SDS011;14886;51.586;6.722;2023-07-20T03:37:52;46;;;22.3;;
27436;SDS011;14886;51.586;6.722;2023-07-20T03:47:52;47;;;23.1;;
27436;SDS011;14886;51.586;6.722;2023-07-20T03:57:52;42.8;;;21.3;;
27436;SDS011;14886;51.586;6.722;2023-07-20T04:07:52;42.8;;;20.3;;
27436;SDS011;14886;51.586;6.722;2023-07-20T04:17:52;54.4;;;23;;
27436;SDS011;14886;51.586;6.722;2023-07-20T04:27:52;40.9;;;19.6;;
27436;SDS011;14886;51.586;6.722;2023-07-20T04:37:52;29.2;;;16.8;;
27436;SDS011;14886;51.586;6.722;2023-07-20T04:47:52;23.7;;;12.8;;
27436;SDS011;14886;51.586;6.722;2023-07-20T04:57:51;8.9;;;7;;
27436;SDS011;14886;51.586;6.722;2023-07-20T05:07:52;8;;;5.9;;
27436;SDS011;14886;51.586;6.722;2023-07-20T05:17:51;9.4;;;6.3;;
27436;SDS011;14886;51.586;6.722;2023-07-20T05:27:52;8.9;;;4.7;;
27436;SDS011;14886;51.586;6.722;2023-07-20T05:37:51;7.6;;;5.4;;
27436;SDS011;14886;51.586;6.722;2023-07-20T05:47:51;5.4;;;3.4;;
27436;SDS011;14886;51.586;6.722;2023-07-20T05:57:52;5.5;;;3.9;;
27436;SDS011;14886;51.586;6.722;2023-07-20T06:07:51;6.2;;;3.8;;
27436;SDS011;14886;51.586;6.722;2023-07-20T06:17:51;8.5;;;4;;
27436;SDS011;14886;51.586;6.722;2023-07-20T06:27:51;5.9;;;2.9;;
27436;SDS011;14886;51.586;6.722;2023-07-20T06:37:51;5.3;;;2.9;;
27436;SDS011;14886;51.586;6.722;2023-07-20T06:47:51;5;;;2.3;;
27436;SDS011;14886;51.586;6.722;2023-07-20T06:57:51;4.2;;;2.1;;
27436;SDS011;14886;51.586;6.722;2023-07-20T07:07:51;4;;;2;;
27436;SDS011;14886;51.586;6.722;2023-07-20T07:17:51;4.4;;;1.8;;
27436;SDS011;14886;51.586;6.722;2023-07-20T07:27:52;2.8;;;1.4;;
27436;SDS011;14886;51.586;6.722;2023-07-20T07:37:51;4.8;;;1.5;;
27436;SDS011;14886;51.586;6.722;2023-07-20T07:47:51;4.7;;;1.3;;
27436;SDS011;14886;51.586;6.722;2023-07-20T07:57:51;5;;;1.5;;
27436;SDS011;14886;51.586;6.722;2023-07-20T08:07:51;3.7;;;1.3;;
27436;SDS011;14886;51.586;6.722;2023-07-20T08:17:51;5.9;;;1.3;;
27436;SDS011;14886;51.586;6.722;2023-07-20T08:27:51;2.1;;;0.8;;
27436;SDS011;14886;51.586;6.722;2023-07-20T08:37:51;2.3;;;0.6;;
27436;SDS011;14886;51.586;6.722;2023-07-20T08:47:51;3;;;0.9;;
27436;SDS011;14886;51.586;6.722;2023-07-20T08:57:51;2;;;0.8;;
27436;SDS011;14886;51.586;6.722;2023-07-20T09:07:52;2.8;;;0.8;;
27436;SDS011;14886;51.586;6.722;2023-07-20T09:17:51;2.9;;;0.8;;
27436;SDS011;14886;51.586;6.722;2023-07-20T09:27:51;3.1;;;0.6;;
27436;SDS011;14886;51.586;6.722;2023-07-20T09:37:53;2;;;0.7;;
27436;SDS011;14886;51.586;6.722;2023-07-20T09:42:52;5.6;;;1;;
27436;SDS011;14886;51.586;6.722;2023-07-20T09:52:51;3.9;;;0.9;;
27436;SDS011;14886;51.586;6.722;2023-07-20T10:02:51;2.3;;;0.7;;
27436;SDS011;14886;51.586;6.722;2023-07-20T10:07:51;4;;;0.8;;
27436;SDS011;14886;51.586;6.722;2023-07-20T10:17:56;1.6;;;0.5;;
27436;SDS011;14886;51.586;6.722;2023-07-20T10:21:10;4.1;;;1.4;;
27436;SDS011;14886;51.586;6.722;2023-07-20T10:31:10;2;;;0.7;;
27436;SDS011;14886;51.586;6.722;2023-07-20T10:46:10;2.9;;;0.7;;
27436;SDS011;14886;51.586;6.722;2023-07-20T10:56:11;1.9;;;0.7;;
27436;SDS011;14886;51.586;6.722;2023-07-20T11:16:10;5;;;0.9;;
27436;SDS011;14886;51.586;6.722;2023-07-20T11:26:10;2.9;;;0.8;;
27436;SDS011;14886;51.586;6.722;2023-07-20T11:36:10;3.1;;;0.8;;
27436;SDS011;14886;51.586;6.722;2023-07-20T11:46:10;2.5;;;0.7;;
27436;SDS011;14886;51.586;6.722;2023-07-20T11:56:10;2.8;;;0.8;;
27436;SDS011;14886;51.586;6.722;2023-07-20T12:06:10;2.5;;;0.8;;
27436;SDS011;14886;51.586;6.722;2023-07-20T12:16:10;4.8;;;0.7;;
27436;SDS011;14886;51.586;6.722;2023-07-20T12:26:10;2.4;;;0.8;;
27436;SDS011;14886;51.586;6.722;2023-07-20T12:36:10;3.4;;;0.9;;
27436;SDS011;14886;51.586;6.722;2023-07-20T12:46:10;2;;;0.7;;
27436;SDS011;14886;51.586;6.722;2023-07-20T12:56:09;2.3;;;0.9;;
27436;SDS011;14886;51.586;6.722;2023-07-20T13:06:09;1.5;;;0.6;;
27436;SDS011;14886;51.586;6.722;2023-07-20T13:16:09;3.6;;;0.9;;
27436;SDS011;14886;51.586;6.722;2023-07-20T13:26:10;2.3;;;0.8;;
27436;SDS011;14886;51.586;6.722;2023-07-20T13:36:09;4.5;;;0.9;;
27436;SDS011;14886;51.586;6.722;2023-07-20T13:41:09;2.8;;;0.8;;
27436;SDS011;14886;51.586;6.722;2023-07-20T13:51:09;3.5;;;0.8;;
27436;SDS011;14886;51.586;6.722;2023-07-20T14:06:09;2.5;;;0.7;;
27436;SDS011;14886;51.586;6.722;2023-07-20T14:21:09;2.1;;;0.8;;
27436;SDS011;14886;51.586;6.722;2023-07-20T14:36:09;4.6;;;1;;
27436;SDS011;14886;51.586;6.722;2023-07-20T14:46:09;2.6;;;0.8;;
27436;SDS011;14886;51.586;6.722;2023-07-20T14:56:09;3.9;;;0.7;;
27436;SDS011;14886;51.586;6.722;2023-07-20T15:06:11;3;;;0.6;;
27436;SDS011;14886;51.586;6.722;2023-07-20T15:16:09;3.1;;;0.8;;
27436;SDS011;14886;51.586;6.722;2023-07-20T15:26:09;2.5;;;0.9;;
27436;SDS011;14886;51.586;6.722;2023-07-20T15:36:09;2.2;;;0.9;;
27436;SDS011;14886;51.586;6.722;2023-07-20T15:51:09;3.1;;;1;;
27436;SDS011;14886;51.586;6.722;2023-07-20T16:01:09;2.7;;;0.9;;
27436;SDS011;14886;51.586;6.722;2023-07-20T16:11:09;2.6;;;0.8;;
27436;SDS011;14886;51.586;6.722;2023-07-20T16:21:09;6.7;;;1.2;;
27436;SDS011;14886;51.586;6.722;2023-07-20T16:36:09;4.9;;;1.6;;
27436;SDS011;14886;51.586;6.722;2023-07-20T16:46:09;2.1;;;0.9;;
27436;SDS011;14886;51.586;6.722;2023-07-20T16:56:09;4.3;;;1;;
27436;SDS011;14886;51.586;6.722;2023-07-20T17:06:09;6.4;;;1.1;;
27436;SDS011;14886;51.586;6.722;2023-07-20T17:16:09;4.4;;;1;;
27436;SDS011;14886;51.586;6.722;2023-07-20T17:26:09;2.3;;;1.1;;
27436;SDS011;14886;51.586;6.722;2023-07-20T17:36:09;4.1;;;1;;
27436;SDS011;14886;51.586;6.722;2023-07-20T17:46:09;2.3;;;1;;
27436;SDS011;14886;51.586;6.722;2023-07-20T17:56:09;5.5;;;1.1;;
27436;SDS011;14886;51.586;6.722;2023-07-20T18:06:09;2.7;;;1.1;;
27436;SDS011;14886;51.586;6.722;2023-07-20T18:21:09;3.5;;;1.1;;
27436;SDS011;14886;51.586;6.722;2023-07-20T18:31:09;2.4;;;0.9;;
27436;SDS011;14886;51.586;6.722;2023-07-20T18:41:09;3.1;;;0.9;;
27436;SDS011;14886;51.586;6.722;2023-07-20T18:51:09;3;;;1.1;;
27436;SDS011;14886;51.586;6.722;2023-07-20T19:01:09;4.2;;;1.3;;
27436;SDS011;14886;51.586;6.722;2023-07-20T19:11:09;3.8;;;1.2;;
27436;SDS011;14886;51.586;6.722;2023-07-20T19:21:09;3.4;;;1.2;;
27436;SDS011;14886;51.586;6.722;2023-07-20T19:26:09;3.2;;;1.3;;
27436;SDS011;14886;51.586;6.722;2023-07-20T19:36:09;3.2;;;1;;
27436;SDS011;14886;51.586;6.722;2023-07-20T19:46:09;5.1;;;1.9;;
27436;SDS011;14886;51.586;6.722;2023-07-20T19:56:09;3.3;;;1.4;;
27436;SDS011;14886;51.586;6.722;2023-07-20T20:06:11;6.7;;;1.4;;
27436;SDS011;14886;51.586;6.722;2023-07-20T20:16:09;4.6;;;1.6;;
27436;SDS011;14886;51.586;6.722;2023-07-20T20:26:09;8.8;;;1.8;;
27436;SDS011;14886;51.586;6.722;2023-07-20T20:36:09;10;;;1.6;;
27436;SDS011;14886;51.586;6.722;2023-07-20T20:46:09;3.1;;;1.4;;
27436;SDS011;14886;51.586;6.722;2023-07-20T20:56:09;4.3;;;1.7;;
27436;SDS011;14886;51.586;6.722;2023-07-20T21:06:09;4.8;;;1.6;;
27436;SDS011;14886;51.586;6.722;2023-07-20T21:16:09;9.6;;;1.6;;
27436;SDS011;14886;51.586;6.722;2023-07-20T21:26:09;9.4;;;1.9;;
27436;SDS011;14886;51.586;6.722;2023-07-20T21:36:09;4.2;;;1.7;;
27436;SDS011;14886;51.586;6.722;2023-07-20T21:46:09;5.6;;;1.7;;
27436;SDS011;14886;51.586;6.722;2023-07-20T21:56:08;4.2;;;1.7;;
27436;SDS011;14886;51.586;6.722;2023-07-20T22:06:09;4.4;;;1.9;;
27436;SDS011;14886;51.586;6.722;2023-07-20T22:11:09;4.6;;;1.7;;
27436;SDS011;14886;51.586;6.722;2023-07-20T22:21:08;3.9;;;1.7;;
27436;SDS011;14886;51.586;6.722;2023-07-20T22:31:09;5.8;;;1.8;;
27436;SDS011;14886;51.586;6.722;2023-07-20T22:41:08;8.5;;;1.9;;
27436;SDS011;14886;51.586;6.722;2023-07-20T22:51:08;6.3;;;1.8;;
27436;SDS011;14886;51.586;6.722;2023-07-20T23:01:09;5.1;;;1.9;;
27436;SDS011;14886;51.586;6.722;2023-07-20T23:11:08;4.7;;;1.9;;
27436;SDS011;14886;51.586;6.722;2023-07-20T23:21:08;5.2;;;2.2;;
27436;SDS011;14886;51.586;6.722;2023-07-20T23:36:08;6.7;;;2.3;;
27436;SDS011;14886;51.586;6.722;2023-07-20T23:46:08;6.1;;;2.3;;
27436;SDS011;14886;51.586;6.722;2023-07-20T23:56:08;6.5;;;2.3;;
